createdAt,value
2022-10-29T00:04:47.833Z,101614.00
2022-10-29T00:10:49.755Z,101607.00
2022-10-29T00:16:52.015Z,101603.00
2022-10-29T00:22:55.571Z,101596.00
2022-10-29T00:28:57.977Z,101588.00
2022-10-29T00:35:00.104Z,101587.00
2022-10-29T00:41:03.745Z,101575.00
2022-10-29T00:47:26.545Z,101566.00
2022-10-29T00:53:32.894Z,101563.00
2022-10-29T00:59:34.974Z,101558.00
2022-10-29T01:05:37.402Z,101565.00
2022-10-29T01:11:55.549Z,101554.00
2022-10-29T01:18:21.247Z,101547.00
2022-10-29T01:24:41.884Z,101549.00
2022-10-29T01:31:05.791Z,101539.00
2022-10-29T01:37:52.629Z,101533.00
2022-10-29T01:44:02.072Z,101539.00
2022-10-29T01:50:08.035Z,101527.00
2022-10-29T01:56:09.991Z,101516.00
2022-10-29T02:02:34.402Z,101510.00
2022-10-29T02:09:15.653Z,101516.00
2022-10-29T02:15:30.654Z,101497.00
2022-10-29T02:21:32.883Z,101498.00
2022-10-29T02:27:34.956Z,101499.00
2022-10-29T02:33:37.049Z,101499.00
2022-10-29T02:39:39.040Z,101503.00
2022-10-29T02:45:41.182Z,101497.00
2022-10-29T02:51:43.227Z,101500.00
2022-10-29T02:57:46.016Z,101494.00
2022-10-29T03:03:47.982Z,101485.00
2022-10-29T03:09:49.999Z,101492.00
2022-10-29T03:15:52.142Z,101493.00
2022-10-29T03:21:54.198Z,101495.00
2022-10-29T03:27:56.635Z,101499.00
2022-10-29T03:33:58.893Z,101497.00
2022-10-29T03:40:01.069Z,101493.00
2022-10-29T03:46:03.617Z,101493.00
2022-10-29T03:52:05.601Z,101477.00
2022-10-29T03:58:07.725Z,101480.00
2022-10-29T04:04:10.450Z,101479.00
2022-10-29T04:10:12.408Z,101477.00
2022-10-29T04:16:14.413Z,101489.00
2022-10-29T04:24:56.049Z,101488.00
2022-10-29T04:28:42.873Z,101491.00
2022-10-29T04:34:45.804Z,101489.00
2022-10-29T04:40:47.937Z,101483.00
2022-10-29T04:46:49.903Z,101476.00
2022-10-29T04:52:52.026Z,101475.00
2022-10-29T04:58:54.304Z,101487.00
2022-10-29T05:04:56.417Z,101489.00
2022-10-29T05:11:01.396Z,101482.00
2022-10-29T05:17:03.518Z,101494.00
2022-10-29T05:23:07.528Z,101491.00
2022-10-29T05:29:09.492Z,101496.00
2022-10-29T05:35:11.642Z,101493.00
2022-10-29T05:41:13.657Z,101508.00
2022-10-29T05:47:15.773Z,101516.00
2022-10-29T05:53:19.476Z,101522.00
2022-10-29T05:59:21.546Z,101519.00
2022-10-29T06:05:23.773Z,101492.00
2022-10-29T06:11:26.136Z,101489.00
2022-10-29T06:17:28.160Z,101442.00
2022-10-29T06:23:30.246Z,101512.00
2022-10-29T06:29:32.673Z,101441.00
2022-10-29T06:41:57.066Z,101493.00
2022-10-29T06:47:59.585Z,101518.00
2022-10-29T06:54:01.880Z,101552.00
2022-10-29T07:00:10.277Z,101551.00
2022-10-29T07:06:12.403Z,101548.00
2022-10-29T07:12:14.912Z,101563.00
2022-10-29T07:18:16.880Z,101434.00
2022-10-29T07:24:18.968Z,101538.00
2022-10-29T07:30:21.729Z,101541.00
2022-10-29T07:36:24.087Z,101544.00
2022-10-29T07:42:26.181Z,101541.00
2022-10-29T07:48:28.301Z,101543.00
2022-10-29T07:54:30.293Z,101532.00
2022-10-29T08:00:35.004Z,101452.00
2022-10-29T08:06:37.152Z,101461.00
2022-10-29T08:12:39.211Z,101466.00
2022-10-29T08:18:41.168Z,101543.00
2022-10-29T08:24:43.222Z,101550.00
2022-10-29T08:30:49.421Z,101550.00
2022-10-29T08:36:51.559Z,101538.00
2022-10-29T08:43:15.299Z,101544.00
2022-10-29T08:49:24.585Z,101541.00
2022-10-29T08:55:37.489Z,101535.00
2022-10-29T09:01:39.496Z,101534.00
2022-10-29T09:08:02.438Z,101532.00
2022-10-29T09:14:29.453Z,101532.00
2022-10-29T09:20:56.132Z,101528.00
2022-10-29T09:26:59.512Z,101523.00
2022-10-29T09:33:11.253Z,101513.00
2022-10-29T09:39:18.851Z,101512.00
2022-10-29T09:45:30.122Z,101500.00
2022-10-29T09:51:51.554Z,101501.00
2022-10-29T09:57:55.712Z,101495.00
2022-10-29T10:10:24.502Z,101482.00
2022-10-29T10:16:33.404Z,101486.00
2022-10-29T10:22:47.102Z,101467.00
2022-10-29T10:29:05.059Z,101450.00
2022-10-29T10:35:45.657Z,101445.00
2022-10-29T10:41:50.282Z,101435.00
2022-10-29T10:47:57.970Z,101423.00
2022-10-29T10:54:03.522Z,101410.00
2022-10-29T11:00:18.151Z,101413.00
2022-10-29T11:06:30.281Z,101393.00
2022-10-29T11:12:44.115Z,101393.00
2022-10-29T11:18:54.453Z,101363.00
2022-10-29T11:25:26.834Z,101260.00
2022-10-29T11:31:43.093Z,101250.00
2022-10-29T11:38:06.597Z,101254.00
2022-10-29T11:44:13.365Z,101238.00
2022-10-29T11:50:24.332Z,101238.00
2022-10-29T11:56:46.420Z,101359.00
2022-10-29T12:03:08.087Z,101336.00
2022-10-29T12:09:31.672Z,101323.00
2022-10-29T12:15:48.971Z,101325.00
2022-10-29T12:22:00.875Z,101295.00
2022-10-29T12:28:19.327Z,101314.00
2022-10-29T12:34:49.214Z,101312.00
2022-10-29T12:40:59.821Z,101313.00
2022-10-29T12:47:20.877Z,101311.00
2022-10-29T12:54:01.455Z,101301.00
2022-10-29T13:00:47.708Z,101297.00
2022-10-29T13:07:18.663Z,101300.00
2022-10-29T13:13:27.502Z,101296.00
2022-10-29T13:19:43.477Z,101299.00
2022-10-29T13:25:48.873Z,101299.00
2022-10-29T13:31:50.939Z,101278.00
2022-10-29T13:37:54.429Z,101278.00
2022-10-29T13:43:59.363Z,101282.00
2022-10-29T13:50:01.651Z,101279.00
2022-10-29T13:56:08.938Z,101270.00
2022-10-29T14:02:22.341Z,101252.00
2022-10-29T14:08:53.327Z,101252.00
2022-10-29T14:15:12.407Z,101243.00
2022-10-29T14:21:29.506Z,101239.00
2022-10-29T14:27:31.573Z,101244.00
2022-10-29T14:33:37.352Z,101242.00
2022-10-29T14:39:57.579Z,101243.00
2022-10-29T14:46:17.098Z,101239.00
2022-10-29T14:52:43.030Z,101234.00
2022-10-29T14:58:45.148Z,101245.00
2022-10-29T15:04:50.900Z,101244.00
2022-10-29T15:10:55.249Z,101248.00
2022-10-29T15:16:58.107Z,101240.00
2022-10-29T15:23:00.443Z,101234.00
2022-10-29T15:29:09.347Z,101248.00
2022-10-29T15:35:11.839Z,101252.00
2022-10-29T15:41:20.156Z,101253.00
2022-10-29T15:47:27.886Z,101244.00
2022-10-29T15:53:30.259Z,101245.00
2022-10-29T15:59:32.301Z,101255.00
2022-10-29T16:05:34.406Z,101246.00
2022-10-29T16:11:36.581Z,101253.00
2022-10-29T16:17:38.727Z,101248.00
2022-10-29T16:23:41.481Z,101255.00
2022-10-29T16:29:43.393Z,101259.00
2022-10-29T16:35:45.720Z,101252.00
2022-10-29T16:41:48.067Z,101256.00
2022-10-29T16:47:52.293Z,101256.00
2022-10-29T16:53:55.180Z,101258.00
2022-10-29T16:59:57.676Z,101263.00
2022-10-29T17:06:05.477Z,101260.00
2022-10-29T17:12:07.993Z,101260.00
2022-10-29T17:18:10.443Z,101264.00
2022-10-29T17:24:12.764Z,101255.00
2022-10-29T17:30:15.127Z,101257.00
2022-10-29T17:36:18.728Z,101250.00
2022-10-29T17:42:21.288Z,101259.00
2022-10-29T17:48:25.104Z,101244.00
2022-10-29T17:54:28.275Z,101244.00
2022-10-29T18:00:30.358Z,101240.00
2022-10-29T18:06:33.193Z,101240.00
2022-10-29T18:12:35.721Z,101233.00
2022-10-29T18:18:54.317Z,101235.00
2022-10-29T18:25:02.743Z,101236.00
2022-10-29T18:31:05.035Z,101236.00
2022-10-29T18:37:07.932Z,101238.00
2022-10-29T18:43:10.357Z,101238.00
2022-10-29T18:49:13.304Z,101229.00
2022-10-29T18:55:15.707Z,101235.00
2022-10-29T19:01:20.466Z,101233.00
2022-10-29T19:07:23.399Z,101225.00
2022-10-29T19:13:25.678Z,101225.00
2022-10-29T19:19:28.228Z,101220.00
2022-10-29T19:25:35.073Z,101221.00
2022-10-29T19:31:40.615Z,101210.00
2022-10-29T19:37:42.965Z,101209.00
2022-10-29T19:43:45.449Z,101212.00
2022-10-29T19:49:47.582Z,101207.00
2022-10-29T19:55:50.706Z,101207.00
2022-10-29T20:01:52.595Z,101199.00
2022-10-29T20:07:56.167Z,101200.00
2022-10-29T20:13:58.653Z,101197.00
2022-10-29T20:20:00.801Z,101199.00
2022-10-29T20:26:03.210Z,101213.00
2022-10-29T20:32:05.484Z,101208.00
2022-10-29T20:38:07.527Z,101205.00
2022-10-29T20:44:10.286Z,101204.00
2022-10-29T20:50:12.504Z,101192.00
2022-10-29T20:56:16.372Z,101197.00
2022-10-29T21:02:19.096Z,101202.00
2022-10-29T21:08:21.411Z,101186.00
2022-10-29T21:14:23.825Z,101178.00
2022-10-29T21:20:25.898Z,101168.00
2022-10-29T21:26:28.983Z,101177.00
2022-10-29T21:32:31.143Z,101172.00
2022-10-29T21:38:33.846Z,101166.00
2022-10-29T21:44:36.065Z,101160.00
2022-10-29T21:50:38.874Z,101157.00
2022-10-29T21:56:40.981Z,101152.00
2022-10-29T22:02:43.083Z,101144.00
2022-10-29T22:08:45.957Z,101146.00
2022-10-29T22:14:48.682Z,101144.00
2022-10-29T22:20:50.746Z,101133.00
2022-10-29T22:26:52.940Z,101130.00
2022-10-29T22:32:55.021Z,101136.00
2022-10-29T22:38:58.886Z,101142.00
2022-10-29T22:45:00.956Z,101138.00
2022-10-29T22:51:05.673Z,101126.00
2022-10-29T22:57:08.332Z,101124.00
2022-10-29T23:03:10.300Z,101123.00
2022-10-29T23:09:12.415Z,101107.00
2022-10-29T23:15:14.690Z,101100.00
2022-10-29T23:21:17.095Z,101096.00
2022-10-29T23:27:19.275Z,101090.00
2022-10-29T23:33:21.430Z,101088.00
2022-10-29T23:39:23.485Z,101093.00
2022-10-29T23:45:25.606Z,101083.00
2022-10-29T23:51:27.849Z,101079.00
2022-10-29T23:57:30.161Z,101072.00
